sensor_id;sensor_type;location;lat;lon;timestamp;P1;durP1;ratioP1;P2;durP2;ratioP2
2564;SDS011;1292;48.020;7.822;2024-01-15T06:47:44;24.83;;;12.50;;
2564;SDS011;1292;48.020;7.822;2024-01-15T06:50:11;28.57;;;12.73;;
2564;SDS011;1292;48.020;7.822;2024-01-15T06:52:38;28.80;;;14.17;;
2564;SDS011;1292;48.020;7.822;2024-01-15T06:55:05;28.20;;;12.67;;
2564;SDS011;1292;48.020;7.822;2024-01-15T06:57:32;27.83;;;13.30;;
2564;SDS011;1292;48.020;7.822;2024-01-15T06:59:59;25.80;;;11.60;;
2564;SDS011;1292;48.020;7.822;2024-01-15T07:02:26;18.70;;;11.83;;
2564;SDS011;1292;48.020;7.822;2024-01-15T07:04:54;26.33;;;12.23;;
2564;SDS011;1292;48.020;7.822;2024-01-15T07:07:21;27.50;;;13.67;;
2564;SDS011;1292;48.020;7.822;2024-01-15T07:09:47;22.30;;;12.63;;
2564;SDS011;1292;48.020;7.822;2024-01-15T07:12:17;22.23;;;10.80;;
2564;SDS011;1292;48.020;7.822;2024-01-15T07:14:43;21.20;;;11.80;;
2564;SDS011;1292;48.020;7.822;2024-01-15T07:17:10;24.50;;;12.70;;
2564;SDS011;1292;48.020;7.822;2024-01-15T07:19:37;21.63;;;11.70;;
2564;SDS011;1292;48.020;7.822;2024-01-15T07:22:05;20.40;;;10.60;;
2564;SDS011;1292;48.020;7.822;2024-01-15T07:24:32;20.80;;;11.53;;
2564;SDS011;1292;48.020;7.822;2024-01-15T07:27:00;16.10;;;8.20;;
2564;SDS011;1292;48.020;7.822;2024-01-15T07:29:27;20.70;;;8.77;;
2564;SDS011;1292;48.020;7.822;2024-01-15T07:31:54;20.30;;;8.70;;
2564;SDS011;1292;48.020;7.822;2024-01-15T07:34:20;12.63;;;7.33;;
2564;SDS011;1292;48.020;7.822;2024-01-15T07:36:47;17.63;;;8.07;;
2564;SDS011;1292;48.020;7.822;2024-01-15T07:39:15;15.37;;;8.93;;
2564;SDS011;1292;48.020;7.822;2024-01-15T07:41:42;15.93;;;8.00;;
2564;SDS011;1292;48.020;7.822;2024-01-15T07:44:09;16.13;;;8.00;;
2564;SDS011;1292;48.020;7.822;2024-01-15T07:46:36;14.90;;;7.33;;
2564;SDS011;1292;48.020;7.822;2024-01-15T07:49:04;13.77;;;8.30;;
2564;SDS011;1292;48.020;7.822;2024-01-15T07:51:31;14.90;;;8.37;;
2564;SDS011;1292;48.020;7.822;2024-01-15T07:53:58;14.00;;;7.30;;
2564;SDS011;1292;48.020;7.822;2024-01-15T07:56:26;12.07;;;7.10;;
2564;SDS011;1292;48.020;7.822;2024-01-15T07:58:53;12.80;;;7.30;;
2564;SDS011;1292;48.020;7.822;2024-01-15T08:01:20;12.00;;;7.20;;
2564;SDS011;1292;48.020;7.822;2024-01-15T08:03:47;14.10;;;7.47;;
2564;SDS011;1292;48.020;7.822;2024-01-15T08:06:14;13.20;;;7.60;;
2564;SDS011;1292;48.020;7.822;2024-01-15T08:08:41;13.73;;;6.80;;
2564;SDS011;1292;48.020;7.822;2024-01-15T08:11:08;12.60;;;6.40;;
2564;SDS011;1292;48.020;7.822;2024-01-15T08:13:36;14.07;;;6.97;;
2564;SDS011;1292;48.020;7.822;2024-01-15T08:16:03;14.23;;;6.27;;
2564;SDS011;1292;48.020;7.822;2024-01-15T08:18:30;10.47;;;7.00;;
2564;SDS011;1292;48.020;7.822;2024-01-15T08:20:56;14.27;;;6.80;;
2564;SDS011;1292;48.020;7.822;2024-01-15T08:23:23;6.83;;;5.10;;
2564;SDS011;1292;48.020;7.822;2024-01-15T08:25:53;13.27;;;6.93;;
2564;SDS011;1292;48.020;7.822;2024-01-15T08:28:20;12.27;;;6.33;;
2564;SDS011;1292;48.020;7.822;2024-01-15T08:30:48;9.33;;;6.60;;
2564;SDS011;1292;48.020;7.822;2024-01-15T08:33:15;13.00;;;7.97;;
2564;SDS011;1292;48.020;7.822;2024-01-15T08:35:41;10.87;;;5.10;;
2564;SDS011;1292;48.020;7.822;2024-01-15T08:38:08;9.63;;;5.90;;
2564;SDS011;1292;48.020;7.822;2024-01-15T08:40:35;13.83;;;6.30;;
2564;SDS011;1292;48.020;7.822;2024-01-15T08:43:02;9.43;;;5.57;;
2564;SDS011;1292;48.020;7.822;2024-01-15T08:45:31;11.20;;;5.50;;
2564;SDS011;1292;48.020;7.822;2024-01-15T08:48:00;7.63;;;4.63;;
2564;SDS011;1292;48.020;7.822;2024-01-15T08:50:27;8.40;;;5.30;;
2564;SDS011;1292;48.020;7.822;2024-01-15T08:52:55;9.40;;;3.90;;
2564;SDS011;1292;48.020;7.822;2024-01-15T08:55:22;8.03;;;5.03;;
2564;SDS011;1292;48.020;7.822;2024-01-15T08:57:49;7.73;;;4.20;;
2564;SDS011;1292;48.020;7.822;2024-01-15T09:00:16;6.63;;;4.20;;
2564;SDS011;1292;48.020;7.822;2024-01-15T09:02:44;7.00;;;4.13;;
2564;SDS011;1292;48.020;7.822;2024-01-15T09:05:12;5.90;;;4.00;;
2564;SDS011;1292;48.020;7.822;2024-01-15T09:07:39;6.60;;;4.40;;
2564;SDS011;1292;48.020;7.822;2024-01-15T09:10:06;8.73;;;5.00;;
2564;SDS011;1292;48.020;7.822;2024-01-15T09:12:34;7.30;;;4.50;;
2564;SDS011;1292;48.020;7.822;2024-01-15T09:15:00;11.77;;;6.60;;
2564;SDS011;1292;48.020;7.822;2024-01-15T09:17:29;9.77;;;6.07;;
2564;SDS011;1292;48.020;7.822;2024-01-15T09:19:57;11.97;;;7.00;;
2564;SDS011;1292;48.020;7.822;2024-01-15T09:22:25;19.97;;;10.83;;
2564;SDS011;1292;48.020;7.822;2024-01-15T09:24:52;17.63;;;8.70;;
2564;SDS011;1292;48.020;7.822;2024-01-15T09:27:19;7.93;;;5.10;;
2564;SDS011;1292;48.020;7.822;2024-01-15T09:29:46;10.30;;;6.70;;
2564;SDS011;1292;48.020;7.822;2024-01-15T09:32:13;12.53;;;6.20;;
2564;SDS011;1292;48.020;7.822;2024-01-15T09:34:41;11.00;;;5.70;;
2564;SDS011;1292;48.020;7.822;2024-01-15T09:37:07;14.57;;;7.77;;
2564;SDS011;1292;48.020;7.822;2024-01-15T09:39:36;10.50;;;6.60;;
2564;SDS011;1292;48.020;7.822;2024-01-15T09:42:03;12.90;;;7.47;;
2564;SDS011;1292;48.020;7.822;2024-01-15T09:44:31;14.30;;;7.37;;
2564;SDS011;1292;48.020;7.822;2024-01-15T09:46:58;11.77;;;7.17;;
2564;SDS011;1292;48.020;7.822;2024-01-15T09:49:25;12.23;;;7.20;;
2564;SDS011;1292;48.020;7.822;2024-01-15T09:51:52;10.70;;;7.17;;
2564;SDS011;1292;48.020;7.822;2024-01-15T09:54:20;14.47;;;8.73;;
2564;SDS011;1292;48.020;7.822;2024-01-15T09:56:49;15.20;;;7.90;;
2564;SDS011;1292;48.020;7.822;2024-01-15T09:59:16;13.23;;;8.00;;
2564;SDS011;1292;48.020;7.822;2024-01-15T10:01:44;13.57;;;7.77;;
2564;SDS011;1292;48.020;7.822;2024-01-15T10:04:13;17.43;;;8.50;;
2564;SDS011;1292;48.020;7.822;2024-01-15T10:06:40;10.87;;;7.53;;
2564;SDS011;1292;48.020;7.822;2024-01-15T10:09:13;13.70;;;8.37;;
2564;SDS011;1292;48.020;7.822;2024-01-15T10:11:40;15.53;;;8.53;;
2564;SDS011;1292;48.020;7.822;2024-01-15T10:14:09;15.10;;;7.80;;
2564;SDS011;1292;48.020;7.822;2024-01-15T10:16:37;14.13;;;9.70;;
2564;SDS011;1292;48.020;7.822;2024-01-15T10:19:04;18.80;;;9.60;;
2564;SDS011;1292;48.020;7.822;2024-01-15T10:21:31;14.67;;;8.80;;
2564;SDS011;1292;48.020;7.822;2024-01-15T10:24:00;17.30;;;11.50;;
2564;SDS011;1292;48.020;7.822;2024-01-15T10:26:27;16.33;;;8.87;;
2564;SDS011;1292;48.020;7.822;2024-01-15T10:28:54;16.83;;;9.10;;
2564;SDS011;1292;48.020;7.822;2024-01-15T10:31:23;16.23;;;8.90;;
2564;SDS011;1292;48.020;7.822;2024-01-15T10:33:50;21.07;;;10.60;;
2564;SDS011;1292;48.020;7.822;2024-01-15T10:36:17;16.53;;;9.40;;
2564;SDS011;1292;48.020;7.822;2024-01-15T10:38:44;18.07;;;9.30;;
2564;SDS011;1292;48.020;7.822;2024-01-15T10:41:11;22.33;;;11.27;;
2564;SDS011;1292;48.020;7.822;2024-01-15T10:43:38;19.57;;;11.23;;
2564;SDS011;1292;48.020;7.822;2024-01-15T10:46:06;18.70;;;10.90;;
2564;SDS011;1292;48.020;7.822;2024-01-15T10:48:35;21.03;;;11.90;;
2564;SDS011;1292;48.020;7.822;2024-01-15T10:51:03;18.60;;;11.10;;
2564;SDS011;1292;48.020;7.822;2024-01-15T10:53:35;15.87;;;9.93;;
2564;SDS011;1292;48.020;7.822;2024-01-15T10:56:05;20.10;;;10.30;;
2564;SDS011;1292;48.020;7.822;2024-01-15T10:58:33;16.17;;;10.33;;
2564;SDS011;1292;48.020;7.822;2024-01-15T11:01:01;18.17;;;10.07;;
2564;SDS011;1292;48.020;7.822;2024-01-15T11:03:29;16.10;;;9.57;;
2564;SDS011;1292;48.020;7.822;2024-01-15T11:05:58;19.13;;;11.17;;
2564;SDS011;1292;48.020;7.822;2024-01-15T11:08:26;21.00;;;10.80;;
2564;SDS011;1292;48.020;7.822;2024-01-15T11:10:53;20.03;;;10.63;;
2564;SDS011;1292;48.020;7.822;2024-01-15T11:13:20;21.50;;;11.40;;
2564;SDS011;1292;48.020;7.822;2024-01-15T11:15:54;22.10;;;11.73;;
2564;SDS011;1292;48.020;7.822;2024-01-15T11:18:26;16.97;;;9.97;;
2564;SDS011;1292;48.020;7.822;2024-01-15T11:23:52;25.60;;;16.10;;
2564;SDS011;1292;48.020;7.822;2024-01-15T11:26:31;17.60;;;10.97;;
2564;SDS011;1292;48.020;7.822;2024-01-15T11:29:02;16.83;;;10.00;;
2564;SDS011;1292;48.020;7.822;2024-01-15T11:31:29;18.10;;;8.90;;
2564;SDS011;1292;48.020;7.822;2024-01-15T11:34:16;17.77;;;9.57;;
2564;SDS011;1292;48.020;7.822;2024-01-15T11:37:02;18.17;;;10.90;;
2564;SDS011;1292;48.020;7.822;2024-01-15T11:39:42;16.80;;;9.97;;
2564;SDS011;1292;48.020;7.822;2024-01-15T11:42:09;16.43;;;9.30;;
2564;SDS011;1292;48.020;7.822;2024-01-15T11:44:37;13.80;;;8.03;;
2564;SDS011;1292;48.020;7.822;2024-01-15T11:47:05;17.50;;;9.37;;
2564;SDS011;1292;48.020;7.822;2024-01-15T11:49:41;15.00;;;9.30;;
2564;SDS011;1292;48.020;7.822;2024-01-15T11:52:25;14.40;;;9.07;;
2564;SDS011;1292;48.020;7.822;2024-01-15T11:54:55;13.03;;;8.10;;
2564;SDS011;1292;48.020;7.822;2024-01-15T11:57:29;15.03;;;8.13;;
2564;SDS011;1292;48.020;7.822;2024-01-15T11:59:59;13.30;;;8.07;;
2564;SDS011;1292;48.020;7.822;2024-01-15T12:02:26;18.93;;;9.07;;
2564;SDS011;1292;48.020;7.822;2024-01-15T12:04:53;18.80;;;8.73;;
2564;SDS011;1292;48.020;7.822;2024-01-15T12:07:20;16.03;;;9.77;;
2564;SDS011;1292;48.020;7.822;2024-01-15T12:09:48;16.20;;;9.30;;
2564;SDS011;1292;48.020;7.822;2024-01-15T12:12:18;24.80;;;10.03;;
2564;SDS011;1292;48.020;7.822;2024-01-15T12:14:51;21.70;;;8.90;;
2564;SDS011;1292;48.020;7.822;2024-01-15T12:17:18;13.30;;;7.20;;
2564;SDS011;1292;48.020;7.822;2024-01-15T12:19:44;17.47;;;8.37;;
2564;SDS011;1292;48.020;7.822;2024-01-15T12:22:11;14.70;;;9.10;;
2564;SDS011;1292;48.020;7.822;2024-01-15T12:24:38;11.63;;;8.70;;
2564;SDS011;1292;48.020;7.822;2024-01-15T12:27:06;20.77;;;9.13;;
2564;SDS011;1292;48.020;7.822;2024-01-15T12:29:34;18.10;;;10.10;;
2564;SDS011;1292;48.020;7.822;2024-01-15T12:32:00;14.50;;;9.40;;
2564;SDS011;1292;48.020;7.822;2024-01-15T12:34:28;16.83;;;9.80;;
2564;SDS011;1292;48.020;7.822;2024-01-15T12:36:56;15.20;;;9.33;;
2564;SDS011;1292;48.020;7.822;2024-01-15T12:39:24;17.17;;;8.67;;
2564;SDS011;1292;48.020;7.822;2024-01-15T12:41:50;16.87;;;8.63;;
2564;SDS011;1292;48.020;7.822;2024-01-15T12:44:19;13.70;;;8.37;;
2564;SDS011;1292;48.020;7.822;2024-01-15T12:46:46;13.43;;;7.97;;
2564;SDS011;1292;48.020;7.822;2024-01-15T12:49:12;17.17;;;8.70;;
2564;SDS011;1292;48.020;7.822;2024-01-15T12:51:39;19.70;;;8.70;;
2564;SDS011;1292;48.020;7.822;2024-01-15T12:54:06;13.27;;;9.27;;
2564;SDS011;1292;48.020;7.822;2024-01-15T12:56:33;16.50;;;8.60;;
2564;SDS011;1292;48.020;7.822;2024-01-15T12:59:00;18.43;;;9.13;;
2564;SDS011;1292;48.020;7.822;2024-01-15T13:01:28;23.30;;;10.63;;
2564;SDS011;1292;48.020;7.822;2024-01-15T13:03:54;15.53;;;9.43;;
2564;SDS011;1292;48.020;7.822;2024-01-15T13:06:21;16.10;;;9.27;;
2564;SDS011;1292;48.020;7.822;2024-01-15T13:08:48;14.97;;;8.87;;
2564;SDS011;1292;48.020;7.822;2024-01-15T13:11:15;19.70;;;9.77;;
2564;SDS011;1292;48.020;7.822;2024-01-15T13:13:42;16.20;;;10.00;;
2564;SDS011;1292;48.020;7.822;2024-01-15T13:16:09;17.43;;;10.33;;
2564;SDS011;1292;48.020;7.822;2024-01-15T13:18:37;19.60;;;10.90;;
2564;SDS011;1292;48.020;7.822;2024-01-15T13:21:04;14.90;;;10.47;;
2564;SDS011;1292;48.020;7.822;2024-01-15T13:23:31;16.30;;;9.97;;
2564;SDS011;1292;48.020;7.822;2024-01-15T13:25:58;13.43;;;9.80;;
2564;SDS011;1292;48.020;7.822;2024-01-15T13:28:25;17.27;;;10.50;;
2564;SDS011;1292;48.020;7.822;2024-01-15T13:30:52;18.03;;;10.30;;
2564;SDS011;1292;48.020;7.822;2024-01-15T13:33:19;18.73;;;9.90;;
2564;SDS011;1292;48.020;7.822;2024-01-15T13:35:47;17.00;;;10.27;;
2564;SDS011;1292;48.020;7.822;2024-01-15T13:38:15;19.47;;;9.87;;
2564;SDS011;1292;48.020;7.822;2024-01-15T13:40:42;15.17;;;10.40;;
2564;SDS011;1292;48.020;7.822;2024-01-15T13:43:10;21.37;;;11.17;;
2564;SDS011;1292;48.020;7.822;2024-01-15T13:45:39;18.33;;;11.77;;
2564;SDS011;1292;48.020;7.822;2024-01-15T13:48:06;19.10;;;11.50;;
2564;SDS011;1292;48.020;7.822;2024-01-15T13:50:33;18.67;;;10.00;;
2564;SDS011;1292;48.020;7.822;2024-01-15T13:53:01;19.00;;;10.80;;
2564;SDS011;1292;48.020;7.822;2024-01-15T13:55:28;16.03;;;9.83;;
2564;SDS011;1292;48.020;7.822;2024-01-15T13:57:55;13.20;;;9.43;;
2564;SDS011;1292;48.020;7.822;2024-01-15T14:00:22;21.00;;;11.87;;
2564;SDS011;1292;48.020;7.822;2024-01-15T14:02:49;24.77;;;15.77;;
2564;SDS011;1292;48.020;7.822;2024-01-15T14:05:15;31.77;;;19.50;;
2564;SDS011;1292;48.020;7.822;2024-01-15T14:07:42;29.57;;;19.17;;
2564;SDS011;1292;48.020;7.822;2024-01-15T14:10:10;23.43;;;13.57;;
2564;SDS011;1292;48.020;7.822;2024-01-15T14:12:37;20.47;;;10.47;;
2564;SDS011;1292;48.020;7.822;2024-01-15T14:15:05;20.37;;;10.93;;
2564;SDS011;1292;48.020;7.822;2024-01-15T14:17:32;18.70;;;9.33;;
2564;SDS011;1292;48.020;7.822;2024-01-15T14:19:59;17.33;;;10.17;;
2564;SDS011;1292;48.020;7.822;2024-01-15T14:22:25;17.40;;;10.10;;
2564;SDS011;1292;48.020;7.822;2024-01-15T14:24:52;17.80;;;10.90;;
2564;SDS011;1292;48.020;7.822;2024-01-15T14:27:20;16.77;;;10.40;;
2564;SDS011;1292;48.020;7.822;2024-01-15T14:29:47;20.73;;;11.60;;
2564;SDS011;1292;48.020;7.822;2024-01-15T14:32:14;23.73;;;15.13;;
2564;SDS011;1292;48.020;7.822;2024-01-15T14:34:41;24.33;;;14.87;;
2564;SDS011;1292;48.020;7.822;2024-01-15T14:37:08;30.23;;;14.90;;
2564;SDS011;1292;48.020;7.822;2024-01-15T14:39:35;31.10;;;14.60;;
2564;SDS011;1292;48.020;7.822;2024-01-15T14:42:02;24.97;;;15.07;;
2564;SDS011;1292;48.020;7.822;2024-01-15T14:44:31;22.47;;;13.33;;
2564;SDS011;1292;48.020;7.822;2024-01-15T14:47:00;22.60;;;14.20;;
2564;SDS011;1292;48.020;7.822;2024-01-15T14:49:26;22.77;;;12.57;;
2564;SDS011;1292;48.020;7.822;2024-01-15T14:51:53;19.40;;;11.10;;
2564;SDS011;1292;48.020;7.822;2024-01-15T14:54:20;25.70;;;13.27;;
2564;SDS011;1292;48.020;7.822;2024-01-15T14:56:47;22.33;;;14.97;;
2564;SDS011;1292;48.020;7.822;2024-01-15T14:59:14;38.97;;;19.27;;
2564;SDS011;1292;48.020;7.822;2024-01-15T15:01:42;27.53;;;17.33;;
2564;SDS011;1292;48.020;7.822;2024-01-15T15:04:09;32.40;;;16.63;;
2564;SDS011;1292;48.020;7.822;2024-01-15T15:06:36;20.53;;;13.70;;
2564;SDS011;1292;48.020;7.822;2024-01-15T15:09:03;17.47;;;11.70;;
2564;SDS011;1292;48.020;7.822;2024-01-15T15:11:34;20.33;;;13.43;;
2564;SDS011;1292;48.020;7.822;2024-01-15T15:14:01;18.43;;;11.17;;
2564;SDS011;1292;48.020;7.822;2024-01-15T15:16:29;18.27;;;13.07;;
2564;SDS011;1292;48.020;7.822;2024-01-15T15:18:57;25.00;;;14.40;;
2564;SDS011;1292;48.020;7.822;2024-01-15T15:21:24;28.10;;;14.43;;
2564;SDS011;1292;48.020;7.822;2024-01-15T15:23:52;24.33;;;14.47;;
2564;SDS011;1292;48.020;7.822;2024-01-15T15:26:19;20.90;;;13.90;;
2564;SDS011;1292;48.020;7.822;2024-01-15T15:28:45;23.03;;;12.53;;
2564;SDS011;1292;48.020;7.822;2024-01-15T15:31:13;23.00;;;13.70;;
2564;SDS011;1292;48.020;7.822;2024-01-15T15:33:39;26.60;;;13.97;;
2564;SDS011;1292;48.020;7.822;2024-01-15T15:36:08;24.53;;;13.60;;
2564;SDS011;1292;48.020;7.822;2024-01-15T15:38:35;23.80;;;14.43;;
2564;SDS011;1292;48.020;7.822;2024-01-15T15:41:03;22.33;;;13.50;;
2564;SDS011;1292;48.020;7.822;2024-01-15T15:43:30;26.27;;;14.70;;
2564;SDS011;1292;48.020;7.822;2024-01-15T15:45:56;19.70;;;12.50;;
2564;SDS011;1292;48.020;7.822;2024-01-15T15:48:24;22.53;;;13.80;;
2564;SDS011;1292;48.020;7.822;2024-01-15T15:50:50;18.67;;;11.37;;
2564;SDS011;1292;48.020;7.822;2024-01-15T15:53:19;21.80;;;12.77;;
2564;SDS011;1292;48.020;7.822;2024-01-15T15:55:47;20.57;;;12.90;;
2564;SDS011;1292;48.020;7.822;2024-01-15T15:58:14;17.73;;;11.67;;
2564;SDS011;1292;48.020;7.822;2024-01-15T16:00:40;20.90;;;12.33;;
2564;SDS011;1292;48.020;7.822;2024-01-15T16:03:07;22.70;;;13.57;;
2564;SDS011;1292;48.020;7.822;2024-01-15T16:05:34;23.20;;;13.63;;
2564;SDS011;1292;48.020;7.822;2024-01-15T16:08:01;23.47;;;13.70;;
2564;SDS011;1292;48.020;7.822;2024-01-15T16:10:30;21.90;;;13.37;;
2564;SDS011;1292;48.020;7.822;2024-01-15T16:12:56;28.00;;;14.80;;
2564;SDS011;1292;48.020;7.822;2024-01-15T16:15:23;22.13;;;12.13;;
2564;SDS011;1292;48.020;7.822;2024-01-15T16:17:50;26.10;;;13.33;;
2564;SDS011;1292;48.020;7.822;2024-01-15T16:20:17;23.83;;;15.00;;
2564;SDS011;1292;48.020;7.822;2024-01-15T16:22:45;20.40;;;14.03;;
2564;SDS011;1292;48.020;7.822;2024-01-15T16:25:12;21.57;;;14.00;;
2564;SDS011;1292;48.020;7.822;2024-01-15T16:27:40;23.30;;;13.70;;
2564;SDS011;1292;48.020;7.822;2024-01-15T16:30:07;21.53;;;14.10;;
2564;SDS011;1292;48.020;7.822;2024-01-15T16:32:35;25.83;;;14.87;;
2564;SDS011;1292;48.020;7.822;2024-01-15T16:35:02;27.37;;;14.20;;
2564;SDS011;1292;48.020;7.822;2024-01-15T16:37:29;16.83;;;12.23;;
2564;SDS011;1292;48.020;7.822;2024-01-15T16:39:56;28.00;;;14.73;;
2564;SDS011;1292;48.020;7.822;2024-01-15T16:42:23;19.80;;;13.30;;
2564;SDS011;1292;48.020;7.822;2024-01-15T16:44:51;21.80;;;12.57;;
2564;SDS011;1292;48.020;7.822;2024-01-15T16:47:18;28.90;;;17.30;;
2564;SDS011;1292;48.020;7.822;2024-01-15T16:49:44;20.07;;;12.80;;
2564;SDS011;1292;48.020;7.822;2024-01-15T16:52:11;25.70;;;13.00;;
2564;SDS011;1292;48.020;7.822;2024-01-15T16:54:38;23.20;;;13.93;;
2564;SDS011;1292;48.020;7.822;2024-01-15T16:57:05;21.53;;;13.20;;
2564;SDS011;1292;48.020;7.822;2024-01-15T16:59:32;26.63;;;16.10;;
2564;SDS011;1292;48.020;7.822;2024-01-15T17:02:00;20.40;;;14.20;;
2564;SDS011;1292;48.020;7.822;2024-01-15T17:04:27;24.60;;;14.33;;
2564;SDS011;1292;48.020;7.822;2024-01-15T17:06:53;26.03;;;14.90;;
2564;SDS011;1292;48.020;7.822;2024-01-15T17:09:20;27.43;;;16.47;;
2564;SDS011;1292;48.020;7.822;2024-01-15T17:11:47;22.77;;;13.97;;
2564;SDS011;1292;48.020;7.822;2024-01-15T17:14:14;22.03;;;14.10;;
2564;SDS011;1292;48.020;7.822;2024-01-15T17:16:42;23.43;;;15.33;;
2564;SDS011;1292;48.020;7.822;2024-01-15T17:19:10;21.90;;;14.00;;
2564;SDS011;1292;48.020;7.822;2024-01-15T17:21:37;26.37;;;15.60;;
2564;SDS011;1292;48.020;7.822;2024-01-15T17:24:04;21.37;;;14.60;;
2564;SDS011;1292;48.020;7.822;2024-01-15T17:26:31;34.93;;;15.50;;
2564;SDS011;1292;48.020;7.822;2024-01-15T17:28:58;27.40;;;15.40;;
2564;SDS011;1292;48.020;7.822;2024-01-15T17:31:25;26.40;;;14.03;;
2564;SDS011;1292;48.020;7.822;2024-01-15T17:33:52;27.23;;;15.50;;
2564;SDS011;1292;48.020;7.822;2024-01-15T17:36:20;21.80;;;13.50;;
2564;SDS011;1292;48.020;7.822;2024-01-15T17:38:47;27.10;;;16.83;;
2564;SDS011;1292;48.020;7.822;2024-01-15T17:41:14;26.50;;;15.47;;
2564;SDS011;1292;48.020;7.822;2024-01-15T17:43:41;28.27;;;17.80;;
2564;SDS011;1292;48.020;7.822;2024-01-15T17:46:07;25.27;;;14.63;;
2564;SDS011;1292;48.020;7.822;2024-01-15T17:48:34;23.10;;;14.50;;
2564;SDS011;1292;48.020;7.822;2024-01-15T17:51:01;22.67;;;14.80;;
2564;SDS011;1292;48.020;7.822;2024-01-15T17:53:29;22.93;;;15.67;;
2564;SDS011;1292;48.020;7.822;2024-01-15T17:55:56;25.77;;;15.87;;
2564;SDS011;1292;48.020;7.822;2024-01-15T17:58:24;25.50;;;16.67;;
2564;SDS011;1292;48.020;7.822;2024-01-15T18:00:50;28.57;;;15.40;;
2564;SDS011;1292;48.020;7.822;2024-01-15T18:03:17;25.67;;;14.70;;
2564;SDS011;1292;48.020;7.822;2024-01-15T18:05:44;27.00;;;15.50;;
2564;SDS011;1292;48.020;7.822;2024-01-15T18:08:11;25.17;;;15.37;;
2564;SDS011;1292;48.020;7.822;2024-01-15T18:10:39;20.57;;;12.67;;
2564;SDS011;1292;48.020;7.822;2024-01-15T18:13:06;24.27;;;14.90;;
2564;SDS011;1292;48.020;7.822;2024-01-15T18:15:33;29.70;;;17.57;;
2564;SDS011;1292;48.020;7.822;2024-01-15T18:18:00;29.23;;;15.10;;
2564;SDS011;1292;48.020;7.822;2024-01-15T18:20:26;23.83;;;14.87;;
2564;SDS011;1292;48.020;7.822;2024-01-15T18:22:53;26.10;;;15.07;;
2564;SDS011;1292;48.020;7.822;2024-01-15T18:25:21;29.83;;;15.97;;
2564;SDS011;1292;48.020;7.822;2024-01-15T18:27:49;21.40;;;14.10;;
2564;SDS011;1292;48.020;7.822;2024-01-15T18:30:16;27.43;;;13.60;;
2564;SDS011;1292;48.020;7.822;2024-01-15T18:32:43;25.70;;;12.50;;
2564;SDS011;1292;48.020;7.822;2024-01-15T18:35:10;22.23;;;15.57;;
2564;SDS011;1292;48.020;7.822;2024-01-15T18:37:36;30.13;;;17.50;;
2564;SDS011;1292;48.020;7.822;2024-01-15T18:40:04;27.10;;;16.97;;
2564;SDS011;1292;48.020;7.822;2024-01-15T18:42:31;30.53;;;17.10;;
2564;SDS011;1292;48.020;7.822;2024-01-15T18:44:59;33.47;;;16.80;;
2564;SDS011;1292;48.020;7.822;2024-01-15T18:47:26;33.30;;;17.27;;
2564;SDS011;1292;48.020;7.822;2024-01-15T18:49:53;34.13;;;19.93;;
2564;SDS011;1292;48.020;7.822;2024-01-15T18:52:20;27.97;;;18.40;;
2564;SDS011;1292;48.020;7.822;2024-01-15T18:54:47;33.87;;;18.27;;
2564;SDS011;1292;48.020;7.822;2024-01-15T18:57:14;30.00;;;16.90;;
2564;SDS011;1292;48.020;7.822;2024-01-15T18:59:41;32.50;;;17.13;;
2564;SDS011;1292;48.020;7.822;2024-01-15T19:02:11;28.50;;;15.80;;
2564;SDS011;1292;48.020;7.822;2024-01-15T19:04:37;34.30;;;17.97;;
2564;SDS011;1292;48.020;7.822;2024-01-15T19:07:04;28.10;;;15.20;;
2564;SDS011;1292;48.020;7.822;2024-01-15T19:09:32;37.33;;;16.50;;
2564;SDS011;1292;48.020;7.822;2024-01-15T19:11:58;31.60;;;16.97;;
2564;SDS011;1292;48.020;7.822;2024-01-15T19:14:25;23.17;;;16.63;;
2564;SDS011;1292;48.020;7.822;2024-01-15T19:16:52;26.77;;;16.40;;
2564;SDS011;1292;48.020;7.822;2024-01-15T19:19:20;24.33;;;15.13;;
2564;SDS011;1292;48.020;7.822;2024-01-15T19:21:47;24.23;;;15.60;;
2564;SDS011;1292;48.020;7.822;2024-01-15T19:24:14;25.73;;;16.13;;
2564;SDS011;1292;48.020;7.822;2024-01-15T19:26:40;28.50;;;14.90;;
2564;SDS011;1292;48.020;7.822;2024-01-15T19:29:07;24.93;;;14.90;;
2564;SDS011;1292;48.020;7.822;2024-01-15T19:31:34;23.80;;;13.60;;
2564;SDS011;1292;48.020;7.822;2024-01-15T19:34:01;21.83;;;13.53;;
2564;SDS011;1292;48.020;7.822;2024-01-15T19:36:30;24.20;;;15.23;;
2564;SDS011;1292;48.020;7.822;2024-01-15T19:38:57;17.00;;;11.67;;
2564;SDS011;1292;48.020;7.822;2024-01-15T19:41:24;20.73;;;13.13;;
2564;SDS011;1292;48.020;7.822;2024-01-15T19:43:52;22.53;;;13.17;;
2564;SDS011;1292;48.020;7.822;2024-01-15T19:46:19;23.27;;;13.40;;
2564;SDS011;1292;48.020;7.822;2024-01-15T19:48:47;20.73;;;13.13;;
2564;SDS011;1292;48.020;7.822;2024-01-15T19:51:14;23.63;;;13.63;;
2564;SDS011;1292;48.020;7.822;2024-01-15T19:53:42;25.93;;;14.60;;
2564;SDS011;1292;48.020;7.822;2024-01-15T19:56:09;27.17;;;15.03;;
2564;SDS011;1292;48.020;7.822;2024-01-15T19:58:38;20.83;;;14.27;;
2564;SDS011;1292;48.020;7.822;2024-01-15T20:01:05;28.03;;;16.67;;
2564;SDS011;1292;48.020;7.822;2024-01-15T20:03:32;24.30;;;16.43;;
2564;SDS011;1292;48.020;7.822;2024-01-15T20:05:59;28.83;;;16.37;;
2564;SDS011;1292;48.020;7.822;2024-01-15T20:08:25;21.77;;;14.53;;
2564;SDS011;1292;48.020;7.822;2024-01-15T20:10:54;19.57;;;13.53;;
2564;SDS011;1292;48.020;7.822;2024-01-15T20:13:23;19.73;;;12.77;;
2564;SDS011;1292;48.020;7.822;2024-01-15T20:15:50;23.03;;;11.77;;
2564;SDS011;1292;48.020;7.822;2024-01-15T20:18:17;21.67;;;14.27;;
2564;SDS011;1292;48.020;7.822;2024-01-15T20:20:44;21.27;;;13.90;;
2564;SDS011;1292;48.020;7.822;2024-01-15T20:23:11;22.67;;;13.50;;
2564;SDS011;1292;48.020;7.822;2024-01-15T20:25:38;21.13;;;14.60;;
2564;SDS011;1292;48.020;7.822;2024-01-15T20:28:06;22.00;;;14.00;;
2564;SDS011;1292;48.020;7.822;2024-01-15T20:30:34;25.20;;;15.10;;
2564;SDS011;1292;48.020;7.822;2024-01-15T20:33:01;23.93;;;16.33;;
2564;SDS011;1292;48.020;7.822;2024-01-15T20:35:27;22.30;;;13.47;;
2564;SDS011;1292;48.020;7.822;2024-01-15T20:37:54;22.83;;;12.93;;
2564;SDS011;1292;48.020;7.822;2024-01-15T20:40:22;21.63;;;14.53;;
2564;SDS011;1292;48.020;7.822;2024-01-15T20:42:49;23.80;;;11.90;;
2564;SDS011;1292;48.020;7.822;2024-01-15T20:45:17;19.00;;;11.93;;
2564;SDS011;1292;48.020;7.822;2024-01-15T20:47:44;23.97;;;13.30;;
2564;SDS011;1292;48.020;7.822;2024-01-15T20:50:11;22.40;;;13.67;;
2564;SDS011;1292;48.020;7.822;2024-01-15T20:52:38;21.77;;;12.10;;
2564;SDS011;1292;48.020;7.822;2024-01-15T20:55:05;19.73;;;12.00;;
2564;SDS011;1292;48.020;7.822;2024-01-15T20:57:33;18.20;;;11.03;;
2564;SDS011;1292;48.020;7.822;2024-01-15T21:00:00;22.83;;;11.37;;
2564;SDS011;1292;48.020;7.822;2024-01-15T21:02:29;17.53;;;10.50;;
2564;SDS011;1292;48.020;7.822;2024-01-15T21:04:56;19.80;;;10.97;;
2564;SDS011;1292;48.020;7.822;2024-01-15T21:07:23;21.23;;;12.27;;
2564;SDS011;1292;48.020;7.822;2024-01-15T21:09:51;18.30;;;11.60;;
2564;SDS011;1292;48.020;7.822;2024-01-15T21:12:17;24.30;;;12.17;;
2564;SDS011;1292;48.020;7.822;2024-01-15T21:14:44;21.63;;;12.30;;
2564;SDS011;1292;48.020;7.822;2024-01-15T21:17:12;19.90;;;11.33;;
2564;SDS011;1292;48.020;7.822;2024-01-15T21:19:41;18.53;;;10.87;;
2564;SDS011;1292;48.020;7.822;2024-01-15T21:22:08;14.93;;;9.77;;
2564;SDS011;1292;48.020;7.822;2024-01-15T21:24:35;20.00;;;11.17;;
2564;SDS011;1292;48.020;7.822;2024-01-15T21:27:02;18.43;;;10.20;;
2564;SDS011;1292;48.020;7.822;2024-01-15T21:29:29;16.97;;;10.50;;
2564;SDS011;1292;48.020;7.822;2024-01-15T21:31:56;14.07;;;9.60;;
2564;SDS011;1292;48.020;7.822;2024-01-15T21:34:23;18.30;;;11.67;;
2564;SDS011;1292;48.020;7.822;2024-01-15T21:36:51;17.00;;;9.53;;
2564;SDS011;1292;48.020;7.822;2024-01-15T21:39:18;14.40;;;9.57;;
2564;SDS011;1292;48.020;7.822;2024-01-15T21:41:45;15.10;;;9.00;;
2564;SDS011;1292;48.020;7.822;2024-01-15T21:44:12;12.47;;;7.97;;